createdAt,value
2024-03-02T00:02:30.073Z,21.50
2024-03-02T00:05:00.741Z,20.20
2024-03-02T00:07:32.767Z,21.30
2024-03-02T00:10:06.486Z,23.10
2024-03-02T00:12:37.922Z,20.90
2024-03-02T00:15:22.949Z,20.90
2024-03-02T00:17:57.358Z,22.00
2024-03-02T00:20:29.069Z,21.10
2024-03-02T00:23:05.229Z,21.80
2024-03-02T00:25:43.028Z,20.50
2024-03-02T00:28:21.754Z,20.70
2024-03-02T00:31:12.950Z,22.10
2024-03-02T00:33:45.666Z,22.50
2024-03-02T00:36:24.049Z,21.70
2024-03-02T00:38:56.158Z,19.70
2024-03-02T00:41:29.928Z,19.70
2024-03-02T00:44:06.742Z,20.90
2024-03-02T00:46:39.256Z,21.90
2024-03-02T00:49:21.049Z,20.90
2024-03-02T00:51:53.024Z,21.90
2024-03-02T00:54:25.428Z,23.00
2024-03-02T00:56:57.506Z,19.80
2024-03-02T00:59:28.361Z,19.70
2024-03-02T01:01:59.037Z,20.90
2024-03-02T01:04:29.824Z,20.30
2024-03-02T01:07:00.642Z,21.80
2024-03-02T01:09:31.450Z,20.00
2024-03-02T01:12:02.061Z,21.50
2024-03-02T01:14:32.710Z,20.70
2024-03-02T01:17:04.819Z,21.10
2024-03-02T01:19:35.422Z,21.20
2024-03-02T01:22:06.209Z,20.70
2024-03-02T01:24:36.847Z,20.30
2024-03-02T01:27:07.714Z,22.40
2024-03-02T01:29:38.321Z,20.70
2024-03-02T01:32:09.997Z,21.50
2024-03-02T01:34:40.675Z,21.70
2024-03-02T01:37:11.868Z,21.30
2024-03-02T01:39:42.593Z,21.00
2024-03-02T01:42:13.359Z,21.60
2024-03-02T01:44:44.419Z,20.10
2024-03-02T01:47:15.507Z,19.80
2024-03-02T01:49:46.468Z,21.10
2024-03-02T01:52:17.117Z,20.30
2024-03-02T01:54:47.837Z,21.20
2024-03-02T01:57:18.825Z,20.70
2024-03-02T01:59:49.800Z,19.60
2024-03-02T02:02:21.229Z,19.40
2024-03-02T02:04:51.936Z,20.00
2024-03-02T02:07:22.562Z,20.30
2024-03-02T02:09:53.335Z,23.00
2024-03-02T02:12:24.089Z,21.40
2024-03-02T02:14:54.789Z,20.90
2024-03-02T02:17:25.461Z,20.90
2024-03-02T02:19:56.036Z,22.10
2024-03-02T02:22:26.635Z,20.90
2024-03-02T02:24:57.508Z,22.70
2024-03-02T02:27:28.110Z,21.60
2024-03-02T02:29:58.751Z,22.10
2024-03-02T02:32:29.529Z,21.80
2024-03-02T02:35:00.437Z,21.90
2024-03-02T02:37:31.121Z,21.30
2024-03-02T02:40:01.889Z,19.20
2024-03-02T02:42:32.602Z,20.90
2024-03-02T02:45:03.339Z,20.80
2024-03-02T02:47:36.084Z,21.80
2024-03-02T02:50:09.486Z,22.40
2024-03-02T02:52:41.780Z,22.70
2024-03-02T02:55:14.612Z,20.90
2024-03-02T02:57:46.787Z,21.40
2024-03-02T03:00:21.108Z,19.10
2024-03-02T03:02:52.893Z,20.80
2024-03-02T03:05:24.135Z,21.00
2024-03-02T03:07:54.830Z,22.60
2024-03-02T03:10:27.650Z,20.30
2024-03-02T03:12:58.480Z,20.00
2024-03-02T03:15:29.174Z,19.70
2024-03-02T03:17:59.899Z,20.40
2024-03-02T03:20:30.578Z,19.70
2024-03-02T03:23:01.200Z,21.40
2024-03-02T03:25:31.803Z,22.40
2024-03-02T03:28:04.292Z,22.50
2024-03-02T03:30:35.058Z,21.50
2024-03-02T03:33:07.025Z,22.70
2024-03-02T03:35:38.645Z,21.10
2024-03-02T03:38:09.249Z,22.90
2024-03-02T03:40:39.936Z,23.60
2024-03-02T03:43:10.621Z,21.00
2024-03-02T03:45:41.354Z,20.70
2024-03-02T03:48:12.177Z,19.70
2024-03-02T03:50:42.942Z,22.10
2024-03-02T03:53:13.604Z,21.80
2024-03-02T03:55:44.279Z,20.00
2024-03-02T03:58:15.444Z,21.10
2024-03-02T04:00:46.128Z,19.60
2024-03-02T04:03:16.862Z,20.40
2024-03-02T04:05:47.482Z,21.80
2024-03-02T04:08:18.248Z,19.00
2024-03-02T04:10:48.969Z,21.50
2024-03-02T04:13:19.828Z,21.10
2024-03-02T04:15:50.527Z,21.90
2024-03-02T04:18:21.261Z,20.90
2024-03-02T04:20:54.110Z,22.00
2024-03-02T04:23:25.062Z,20.50
2024-03-02T04:25:55.669Z,19.80
2024-03-02T04:28:26.331Z,19.60
2024-03-02T04:30:57.100Z,18.70
2024-03-02T04:33:27.934Z,19.40
2024-03-02T04:35:58.800Z,18.10
2024-03-02T04:38:30.024Z,20.30
2024-03-02T04:41:00.664Z,20.20
2024-03-02T04:43:31.325Z,21.90
2024-03-02T04:46:02.402Z,20.60
2024-03-02T04:48:33.504Z,21.20
2024-03-02T04:51:04.242Z,22.70
2024-03-02T04:53:34.868Z,22.90
2024-03-02T04:56:28.603Z,21.00
2024-03-02T04:58:59.180Z,19.20
2024-03-02T05:01:29.848Z,19.90
2024-03-02T05:04:00.690Z,20.70
2024-03-02T05:06:32.224Z,20.80
2024-03-02T05:09:03.006Z,21.00
2024-03-02T05:11:54.326Z,21.60
2024-03-02T05:14:24.974Z,21.20
2024-03-02T05:16:55.642Z,19.90
2024-03-02T05:19:26.423Z,22.50
2024-03-02T05:21:57.148Z,22.40
2024-03-02T05:24:29.461Z,22.50
2024-03-02T05:27:00.701Z,22.70
2024-03-02T05:29:31.364Z,21.90
2024-03-02T05:32:01.994Z,21.70
2024-03-02T05:34:34.077Z,20.70
2024-03-02T05:37:04.756Z,21.80
2024-03-02T05:39:35.469Z,21.40
2024-03-02T05:42:07.018Z,22.00
2024-03-02T05:44:37.694Z,22.70
2024-03-02T05:47:09.903Z,21.40
2024-03-02T05:49:40.803Z,21.80
2024-03-02T05:52:11.903Z,19.20
2024-03-02T05:54:42.681Z,21.40
2024-03-02T05:57:27.302Z,20.50
2024-03-02T05:59:58.697Z,21.70
2024-03-02T06:02:29.313Z,21.40
2024-03-02T06:05:00.084Z,21.90
2024-03-02T06:07:30.676Z,21.40
2024-03-02T06:10:01.541Z,20.40
2024-03-02T06:12:34.578Z,21.00
2024-03-02T06:15:06.096Z,20.00
2024-03-02T06:17:38.738Z,20.80
2024-03-02T06:20:11.814Z,20.10
2024-03-02T06:22:42.561Z,20.30
2024-03-02T06:25:14.242Z,20.50
2024-03-02T06:27:44.969Z,18.70
2024-03-02T06:30:16.782Z,20.10
2024-03-02T06:32:47.486Z,19.10
2024-03-02T06:35:18.312Z,19.40
2024-03-02T06:37:49.010Z,19.50
2024-03-02T06:40:20.022Z,22.10
2024-03-02T06:42:50.747Z,16.80
2024-03-02T06:45:21.441Z,21.30
2024-03-02T06:47:52.073Z,19.20
2024-03-02T06:50:22.684Z,19.40
2024-03-02T06:52:53.533Z,17.80
2024-03-02T06:55:25.503Z,20.40
2024-03-02T06:57:56.215Z,19.60
2024-03-02T07:00:26.933Z,19.40
2024-03-02T07:02:57.632Z,18.70
2024-03-02T07:05:28.312Z,17.70
2024-03-02T07:07:59.010Z,19.30
2024-03-02T07:10:29.646Z,18.50
2024-03-02T07:13:00.821Z,17.60
2024-03-02T07:15:45.577Z,20.00
2024-03-02T07:18:18.894Z,19.00
2024-03-02T07:20:50.780Z,19.00
2024-03-02T07:23:24.391Z,18.50
2024-03-02T07:28:29.861Z,20.40
2024-03-02T07:31:04.099Z,19.10
2024-03-02T07:33:35.058Z,18.10
2024-03-02T07:36:06.707Z,18.20
2024-03-02T07:38:37.609Z,20.70
2024-03-02T07:41:08.680Z,17.30
2024-03-02T07:43:39.435Z,21.90
2024-03-02T07:46:10.295Z,19.00
2024-03-02T07:48:41.030Z,21.30
2024-03-02T07:51:11.784Z,19.40
2024-03-02T07:53:42.491Z,17.60
2024-03-02T07:56:13.163Z,17.90
2024-03-02T07:58:43.774Z,20.20
2024-03-02T08:01:14.505Z,19.60
2024-03-02T08:03:49.092Z,19.50
2024-03-02T08:06:21.853Z,21.50
2024-03-02T08:08:52.550Z,23.60
2024-03-02T08:11:23.370Z,23.90
2024-03-02T08:13:55.958Z,21.00
2024-03-02T08:16:26.908Z,21.70
2024-03-02T08:18:59.196Z,21.40
2024-03-02T08:21:31.753Z,22.20
2024-03-02T08:24:02.774Z,20.20
2024-03-02T08:26:33.509Z,19.70
2024-03-02T08:29:04.768Z,19.20
2024-03-02T08:31:36.926Z,20.80
2024-03-02T08:34:09.058Z,19.20
2024-03-02T08:36:40.349Z,21.30
2024-03-02T08:39:16.609Z,19.00
2024-03-02T08:41:48.048Z,19.20
2024-03-02T08:44:19.276Z,17.30
2024-03-02T08:46:49.972Z,17.60
2024-03-02T08:49:20.676Z,17.10
2024-03-02T08:51:55.808Z,15.40
2024-03-02T08:54:26.990Z,14.00
2024-03-02T08:56:57.857Z,12.90
2024-03-02T08:59:29.030Z,14.40
2024-03-02T09:01:59.994Z,13.50
2024-03-02T09:04:34.894Z,12.40
2024-03-02T09:07:06.544Z,13.80
2024-03-02T09:09:37.241Z,13.10
2024-03-02T09:12:09.039Z,12.50
2024-03-02T09:14:40.035Z,13.70
2024-03-02T09:17:11.927Z,12.40
2024-03-02T09:19:43.257Z,12.00
2024-03-02T09:22:14.350Z,12.00
2024-03-02T09:24:44.999Z,12.30
2024-03-02T09:27:15.797Z,12.40
2024-03-02T09:29:46.442Z,11.40
2024-03-02T09:32:17.422Z,12.90
2024-03-02T09:34:49.407Z,13.00
2024-03-02T09:37:20.165Z,11.60
2024-03-02T09:39:50.994Z,10.60
2024-03-02T09:42:24.487Z,10.90
2024-03-02T09:44:56.366Z,11.70
2024-03-02T09:47:27.272Z,10.60
2024-03-02T09:49:58.058Z,11.00
2024-03-02T09:52:29.214Z,13.00
2024-03-02T09:55:00.058Z,13.10
2024-03-02T09:57:31.053Z,11.70
2024-03-02T10:00:01.837Z,12.90
2024-03-02T10:02:32.629Z,13.30
2024-03-02T10:05:05.265Z,14.60
2024-03-02T10:07:36.095Z,13.80
2024-03-02T10:10:17.391Z,12.80
2024-03-02T10:12:48.047Z,14.10
2024-03-02T10:15:27.426Z,15.40
2024-03-02T10:17:58.871Z,16.10
2024-03-02T10:20:30.867Z,15.30
2024-03-02T10:23:13.972Z,14.80
2024-03-02T10:25:52.110Z,15.00
2024-03-02T10:28:29.347Z,14.90
2024-03-02T10:31:01.201Z,14.10
2024-03-02T10:33:32.150Z,13.80
2024-03-02T10:36:02.916Z,15.10
2024-03-02T10:38:34.015Z,14.20
2024-03-02T10:41:05.614Z,14.70
2024-03-02T10:43:36.419Z,13.30
2024-03-02T10:46:07.492Z,14.40
2024-03-02T10:48:41.886Z,14.20
2024-03-02T10:51:12.695Z,12.90
2024-03-02T10:53:43.437Z,13.30
2024-03-02T10:56:18.927Z,12.40
2024-03-02T10:58:53.202Z,12.80
2024-03-02T11:01:24.655Z,12.50
2024-03-02T11:03:56.173Z,12.40
2024-03-02T11:06:29.007Z,11.70
2024-03-02T11:09:04.301Z,10.90
2024-03-02T11:11:38.791Z,12.20
2024-03-02T11:14:15.507Z,10.40
2024-03-02T11:16:47.229Z,11.90
2024-03-02T11:19:19.213Z,11.00
2024-03-02T11:21:50.622Z,9.70
2024-03-02T11:24:38.915Z,9.90
2024-03-02T11:27:13.649Z,10.80
2024-03-02T11:29:50.699Z,10.40
2024-03-02T11:32:24.822Z,9.80
2024-03-02T11:34:56.544Z,8.10
2024-03-02T11:37:28.499Z,8.30
2024-03-02T11:39:59.301Z,8.30
2024-03-02T11:42:30.103Z,7.30
2024-03-02T11:45:01.670Z,6.50
2024-03-02T11:47:38.585Z,6.50
2024-03-02T11:50:11.089Z,6.40
2024-03-02T11:52:42.713Z,5.80
2024-03-02T11:55:13.766Z,5.40
2024-03-02T11:57:44.753Z,8.00
2024-03-02T12:00:22.377Z,7.20
2024-03-02T12:03:04.311Z,6.70
2024-03-02T12:05:36.103Z,6.30
2024-03-02T12:08:08.681Z,6.40
2024-03-02T12:10:40.071Z,7.10
2024-03-02T12:13:13.038Z,6.70
2024-03-02T12:15:43.964Z,5.90
2024-03-02T12:18:14.723Z,7.80
2024-03-02T12:20:45.469Z,7.50
2024-03-02T12:23:17.148Z,7.60
2024-03-02T12:25:49.367Z,8.60
2024-03-02T12:28:21.366Z,8.40
2024-03-02T12:30:53.830Z,8.30
2024-03-02T12:33:25.320Z,8.90
2024-03-02T12:35:56.172Z,10.10
2024-03-02T12:38:28.571Z,8.60
2024-03-02T12:40:59.705Z,8.60
2024-03-02T12:43:34.491Z,9.50
2024-03-02T12:46:05.587Z,8.70
2024-03-02T12:48:36.683Z,10.30
2024-03-02T12:51:08.065Z,9.80
2024-03-02T12:53:38.913Z,8.90
2024-03-02T12:56:11.589Z,9.10
2024-03-02T12:58:44.251Z,9.60
2024-03-02T13:01:20.258Z,8.80
2024-03-02T13:03:52.647Z,8.10
2024-03-02T13:06:23.925Z,7.80
2024-03-02T13:08:54.763Z,8.00
2024-03-02T13:11:26.570Z,7.60
2024-03-02T13:13:57.336Z,9.50
2024-03-02T13:16:32.829Z,9.10
2024-03-02T13:19:09.242Z,8.90
2024-03-02T13:21:40.315Z,8.60
2024-03-02T13:24:11.324Z,9.80
2024-03-02T13:26:42.517Z,9.50
2024-03-02T13:29:13.217Z,9.60
2024-03-02T13:31:43.894Z,9.10
2024-03-02T13:34:14.834Z,9.30
2024-03-02T13:36:45.668Z,9.20
2024-03-02T13:39:16.669Z,8.40
2024-03-02T13:41:53.761Z,8.10
2024-03-02T13:44:24.772Z,8.00
2024-03-02T13:46:55.947Z,8.90
2024-03-02T13:49:29.742Z,8.30
2024-03-02T13:52:01.592Z,8.40
2024-03-02T13:54:32.998Z,8.20
2024-03-02T13:57:03.742Z,8.30
2024-03-02T13:59:34.511Z,8.00
2024-03-02T14:02:06.316Z,7.80
2024-03-02T14:04:38.115Z,8.30
2024-03-02T14:07:09.994Z,7.80
2024-03-02T14:09:40.898Z,6.90
2024-03-02T14:12:14.478Z,7.20
2024-03-02T14:14:45.633Z,6.90
2024-03-02T14:17:16.924Z,6.00
2024-03-02T14:19:49.142Z,8.30
2024-03-02T14:22:22.224Z,7.90
2024-03-02T14:24:53.136Z,8.40
2024-03-02T14:27:32.530Z,8.00
2024-03-02T14:30:16.435Z,8.70
2024-03-02T14:32:47.101Z,8.60
2024-03-02T14:35:17.991Z,8.20
2024-03-02T14:37:48.846Z,9.20
2024-03-02T14:40:19.684Z,8.20
2024-03-02T14:42:50.511Z,9.30
2024-03-02T14:45:21.206Z,7.80
2024-03-02T14:47:52.183Z,9.10
2024-03-02T14:50:23.038Z,10.20
2024-03-02T14:52:53.893Z,9.90
2024-03-02T14:55:24.823Z,8.80
2024-03-02T14:57:55.663Z,9.90
2024-03-02T15:00:26.448Z,9.20
2024-03-02T15:02:57.454Z,9.50
2024-03-02T15:05:28.187Z,10.30
2024-03-02T15:08:00.470Z,9.50
2024-03-02T15:10:31.213Z,8.70
2024-03-02T15:13:02.746Z,9.30
2024-03-02T15:15:33.614Z,9.80
2024-03-02T15:18:06.548Z,9.30
2024-03-02T15:20:37.789Z,9.40
2024-03-02T15:23:08.694Z,9.00
2024-03-02T15:25:39.696Z,9.10
2024-03-02T15:28:10.709Z,9.70
2024-03-02T15:30:42.639Z,8.60
2024-03-02T15:33:13.458Z,9.20
2024-03-02T15:35:44.749Z,9.00
2024-03-02T15:38:24.962Z,8.40
2024-03-02T15:41:03.558Z,10.00
2024-03-02T15:43:37.059Z,10.30
2024-03-02T15:46:08.031Z,8.60
2024-03-02T15:48:39.244Z,8.70
2024-03-02T15:51:09.970Z,8.80
2024-03-02T15:53:41.128Z,10.20
2024-03-02T15:56:12.261Z,10.30
2024-03-02T15:58:43.309Z,9.90
2024-03-02T16:01:14.300Z,9.10
2024-03-02T16:03:45.113Z,8.50
2024-03-02T16:06:16.002Z,10.70
2024-03-02T16:08:46.738Z,9.70
2024-03-02T16:11:17.438Z,10.10
2024-03-02T16:13:48.316Z,10.00
2024-03-02T16:16:19.485Z,10.10
2024-03-02T16:18:50.401Z,9.90
2024-03-02T16:21:21.411Z,9.60
2024-03-02T16:23:52.147Z,9.90
2024-03-02T16:26:22.862Z,10.00
2024-03-02T16:28:53.665Z,10.80
2024-03-02T16:31:25.771Z,10.60
2024-03-02T16:33:56.559Z,10.50
2024-03-02T16:36:29.054Z,10.30
2024-03-02T16:38:59.808Z,10.10
2024-03-02T16:41:34.046Z,9.50
2024-03-02T16:44:07.211Z,10.20
2024-03-02T16:46:39.074Z,11.30
2024-03-02T16:49:10.245Z,11.30
2024-03-02T16:51:44.665Z,11.90
2024-03-02T16:54:15.629Z,11.50
2024-03-02T16:56:47.020Z,10.40
2024-03-02T16:59:17.745Z,9.10
2024-03-02T17:01:48.499Z,9.90
2024-03-02T17:04:21.101Z,10.60
2024-03-02T17:06:52.144Z,11.50
2024-03-02T17:09:22.973Z,11.20
2024-03-02T17:11:53.691Z,10.00
2024-03-02T17:14:25.539Z,10.70
2024-03-02T17:16:56.720Z,11.10
2024-03-02T17:19:27.451Z,10.20
2024-03-02T17:21:58.084Z,10.40
2024-03-02T17:24:28.797Z,10.80
2024-03-02T17:26:59.739Z,10.50
2024-03-02T17:29:30.532Z,10.40
2024-03-02T17:32:01.293Z,11.40
2024-03-02T17:34:31.929Z,12.50
2024-03-02T17:37:02.598Z,11.60
2024-03-02T17:39:33.347Z,12.50
2024-03-02T17:42:04.026Z,12.20
2024-03-02T17:44:34.673Z,13.00
2024-03-02T17:47:06.021Z,12.30
2024-03-02T17:49:36.741Z,12.60
2024-03-02T17:52:08.511Z,13.20
2024-03-02T17:54:39.365Z,12.80
2024-03-02T17:57:09.992Z,14.20
2024-03-02T17:59:40.628Z,14.90
2024-03-02T18:02:11.493Z,13.80
2024-03-02T18:04:43.208Z,14.00
2024-03-02T18:07:14.017Z,13.90
2024-03-02T18:09:44.801Z,13.30
2024-03-02T18:12:15.458Z,14.20
2024-03-02T18:14:46.395Z,13.40
2024-03-02T18:17:17.224Z,12.60
2024-03-02T18:19:48.364Z,14.00
2024-03-02T18:22:19.201Z,13.60
2024-03-02T18:24:49.958Z,14.20
2024-03-02T18:27:20.680Z,14.40
2024-03-02T18:29:51.391Z,12.70
2024-03-02T18:32:22.118Z,13.30
2024-03-02T18:34:52.999Z,10.80
2024-03-02T18:37:24.071Z,12.50
2024-03-02T18:39:54.939Z,12.20
2024-03-02T18:42:26.710Z,11.80
2024-03-02T18:44:57.430Z,12.20
2024-03-02T18:47:28.463Z,11.40
2024-03-02T18:50:00.041Z,13.00
2024-03-02T18:52:34.466Z,12.00
2024-03-02T18:55:05.513Z,13.90
2024-03-02T18:57:36.453Z,10.70
2024-03-02T19:00:13.536Z,11.30
2024-03-02T19:02:45.068Z,8.60
2024-03-02T19:05:15.989Z,9.50
2024-03-02T19:07:46.797Z,10.80
2024-03-02T19:10:17.609Z,10.00
2024-03-02T19:12:48.968Z,11.40
2024-03-02T19:15:20.173Z,10.90
2024-03-02T19:17:50.910Z,9.50
2024-03-02T19:20:21.735Z,9.70
2024-03-02T19:22:54.302Z,10.80
2024-03-02T19:25:25.922Z,11.30
2024-03-02T19:27:57.325Z,12.10
2024-03-02T19:30:28.499Z,14.10
2024-03-02T19:32:59.233Z,13.50
2024-03-02T19:35:30.055Z,13.50
2024-03-02T19:38:00.808Z,12.50
2024-03-02T19:40:31.507Z,14.10
2024-03-02T19:43:02.400Z,12.10
2024-03-02T19:45:33.273Z,13.40
2024-03-02T19:48:04.548Z,14.10
2024-03-02T19:50:35.210Z,15.80
2024-03-02T19:53:06.488Z,13.90
2024-03-02T19:55:38.972Z,14.10
2024-03-02T19:58:10.162Z,13.00
2024-03-02T20:00:41.619Z,13.40
2024-03-02T20:03:12.644Z,13.10
2024-03-02T20:05:43.465Z,11.90
2024-03-02T20:08:14.370Z,13.80
2024-03-02T20:10:47.902Z,14.20
2024-03-02T20:13:18.964Z,14.80
2024-03-02T20:15:50.138Z,14.00
2024-03-02T20:18:20.908Z,13.30
2024-03-02T20:20:51.671Z,13.20
2024-03-02T20:23:22.583Z,13.10
2024-03-02T20:25:55.435Z,14.70
2024-03-02T20:28:26.756Z,12.40
2024-03-02T20:30:57.538Z,14.30
2024-03-02T20:33:28.276Z,13.70
2024-03-02T20:35:58.939Z,14.20
2024-03-02T20:38:29.772Z,14.10
2024-03-02T20:41:00.565Z,13.10
2024-03-02T20:43:31.425Z,12.50
2024-03-02T20:46:07.563Z,14.10
2024-03-02T20:48:38.772Z,13.60
2024-03-02T20:51:09.907Z,13.70
2024-03-02T20:53:40.647Z,13.60
2024-03-02T20:56:11.551Z,14.10
2024-03-02T20:58:42.410Z,14.20
2024-03-02T21:01:14.249Z,16.10
2024-03-02T21:03:46.278Z,15.20
2024-03-02T21:06:17.137Z,15.00
2024-03-02T21:08:47.812Z,13.70
2024-03-02T21:11:19.634Z,14.90
2024-03-02T21:13:50.549Z,15.90
2024-03-02T21:16:21.424Z,13.60
2024-03-02T21:18:52.213Z,13.90
2024-03-02T21:21:22.903Z,15.20
2024-03-02T21:23:53.698Z,14.60
2024-03-02T21:26:24.437Z,14.60
2024-03-02T21:28:55.099Z,14.80
2024-03-02T21:31:25.757Z,14.50
2024-03-02T21:33:56.399Z,14.20
2024-03-02T21:36:27.061Z,13.80
2024-03-02T21:38:57.720Z,12.50
2024-03-02T21:41:28.366Z,14.50
2024-03-02T21:43:59.242Z,14.80
2024-03-02T21:46:29.987Z,15.10
2024-03-02T21:49:00.666Z,13.20
2024-03-02T21:51:31.425Z,13.60
2024-03-02T21:54:02.051Z,15.00
2024-03-02T21:56:32.710Z,14.30
2024-03-02T21:59:03.368Z,14.20
2024-03-02T22:01:34.153Z,13.50
2024-03-02T22:04:04.893Z,14.20
2024-03-02T22:06:35.589Z,14.30
2024-03-02T22:09:06.648Z,14.40
2024-03-02T22:11:37.474Z,13.30
2024-03-02T22:14:08.558Z,14.30
2024-03-02T22:16:39.264Z,13.90
2024-03-02T22:19:10.569Z,13.00
2024-03-02T22:21:41.377Z,13.30
2024-03-02T22:24:15.910Z,14.40
2024-03-02T22:26:46.645Z,13.20
2024-03-02T22:29:17.377Z,14.40
2024-03-02T22:31:48.041Z,13.10
2024-03-02T22:34:18.745Z,12.70
2024-03-02T22:36:49.559Z,13.30
2024-03-02T22:39:20.231Z,14.40
2024-03-02T22:41:51.800Z,14.30
2024-03-02T22:44:22.541Z,11.20
2024-03-02T22:46:53.465Z,13.40
2024-03-02T22:49:24.134Z,12.90
2024-03-02T22:51:54.929Z,14.20
2024-03-02T22:54:25.565Z,13.90
2024-03-02T22:56:58.211Z,13.70
2024-03-02T22:59:28.896Z,14.20
2024-03-02T23:01:59.667Z,12.40
2024-03-02T23:04:30.428Z,14.80
2024-03-02T23:07:01.180Z,14.20
2024-03-02T23:09:31.930Z,12.70
2024-03-02T23:12:02.669Z,14.70
2024-03-02T23:14:33.376Z,13.80
2024-03-02T23:17:04.250Z,14.60
2024-03-02T23:19:35.351Z,11.50
2024-03-02T23:22:07.311Z,12.60
2024-03-02T23:24:38.193Z,13.10
2024-03-02T23:27:09.105Z,12.80
2024-03-02T23:29:41.314Z,11.00
2024-03-02T23:32:12.645Z,12.90
2024-03-02T23:34:43.391Z,12.10
2024-03-02T23:37:14.402Z,10.60
2024-03-02T23:40:06.802Z,12.00
2024-03-02T23:42:38.134Z,10.70
2024-03-02T23:45:10.119Z,11.90
2024-03-02T23:47:41.166Z,11.70
2024-03-02T23:50:13.111Z,11.50
2024-03-02T23:52:43.816Z,11.90
2024-03-02T23:55:14.583Z,11.30
2024-03-02T23:57:45.265Z,9.90
